createdAt,value
2018-01-27T00:02:04.403Z,22.03
2018-01-27T00:04:32.180Z,21.60
2018-01-27T00:07:00.514Z,20.47
2018-01-27T00:09:28.847Z,21.03
2018-01-27T00:11:56.449Z,19.40
2018-01-27T00:14:24.041Z,21.53
2018-01-27T00:16:51.612Z,19.67
2018-01-27T00:19:19.205Z,21.50
2018-01-27T00:21:47.578Z,19.93
2018-01-27T00:24:15.232Z,20.37
2018-01-27T00:26:42.896Z,20.67
2018-01-27T00:29:10.581Z,19.03
2018-01-27T00:31:38.946Z,19.80
2018-01-27T00:34:07.308Z,19.93
2018-01-27T00:36:34.879Z,20.67
2018-01-27T00:39:03.302Z,19.23
2018-01-27T00:41:30.883Z,18.80
2018-01-27T00:43:58.482Z,21.10
2018-01-27T00:46:26.840Z,18.07
2018-01-27T00:48:54.401Z,20.27
2018-01-27T00:51:22.743Z,18.37
2018-01-27T00:53:50.344Z,19.17
2018-01-27T00:56:18.692Z,19.97
2018-01-27T00:58:46.357Z,18.03
2018-01-27T01:01:14.045Z,20.27
2018-01-27T01:03:42.394Z,19.73
2018-01-27T01:06:09.968Z,18.70
2018-01-27T01:08:37.541Z,21.60
2018-01-27T01:11:05.894Z,18.37
2018-01-27T01:13:33.701Z,17.40
2018-01-27T01:16:01.334Z,17.00
2018-01-27T01:18:29.678Z,20.07
2018-01-27T01:20:57.271Z,17.93
2018-01-27T01:23:25.598Z,18.00
2018-01-27T01:25:53.195Z,19.67
2018-01-27T01:28:20.787Z,18.80
2018-01-27T01:30:48.422Z,18.77
2018-01-27T01:33:16.773Z,17.93
2018-01-27T01:35:44.452Z,17.80
2018-01-27T01:38:12.024Z,19.03
2018-01-27T01:40:40.360Z,19.90
2018-01-27T01:43:13.600Z,18.23
2018-01-27T01:45:41.186Z,19.37
2018-01-27T01:48:08.804Z,17.43
2018-01-27T01:50:37.226Z,17.53
2018-01-27T01:53:04.782Z,19.23
2018-01-27T01:55:32.341Z,17.97
2018-01-27T01:57:59.963Z,17.60
2018-01-27T02:00:28.295Z,17.83
2018-01-27T02:02:55.922Z,15.80
2018-01-27T02:05:23.484Z,18.33
2018-01-27T02:07:51.096Z,17.90
2018-01-27T02:10:18.681Z,18.53
2018-01-27T02:12:46.371Z,16.73
2018-01-27T02:15:13.951Z,16.17
2018-01-27T02:17:41.506Z,15.93
2018-01-27T02:20:09.192Z,15.90
2018-01-27T02:22:36.788Z,15.63
2018-01-27T02:25:04.394Z,17.87
2018-01-27T02:27:32.073Z,15.40
2018-01-27T02:29:59.655Z,16.17
2018-01-27T02:32:28.117Z,17.20
2018-01-27T02:34:55.754Z,15.17
2018-01-27T02:37:23.306Z,16.70
2018-01-27T02:39:50.914Z,16.93
2018-01-27T02:42:18.480Z,16.00
2018-01-27T02:44:46.089Z,16.87
2018-01-27T02:47:13.717Z,18.63
2018-01-27T02:49:41.482Z,15.70
2018-01-27T02:52:09.048Z,15.00
2018-01-27T02:54:36.617Z,15.90
2018-01-27T02:57:04.216Z,15.13
2018-01-27T02:59:32.557Z,16.60
2018-01-27T03:02:00.138Z,14.77
2018-01-27T03:04:28.478Z,16.83
2018-01-27T03:06:56.126Z,15.63
2018-01-27T03:09:23.737Z,16.63
2018-01-27T03:11:52.085Z,16.53
2018-01-27T03:14:19.683Z,16.70
2018-01-27T03:16:48.017Z,14.50
2018-01-27T03:19:15.602Z,16.53
2018-01-27T03:21:43.167Z,16.57
2018-01-27T03:24:11.486Z,16.47
2018-01-27T03:26:39.106Z,17.43
2018-01-27T03:29:07.443Z,17.23
2018-01-27T03:31:35.037Z,16.13
2018-01-27T03:34:03.377Z,17.10
2018-01-27T03:36:30.944Z,17.40
2018-01-27T03:38:58.516Z,16.87
2018-01-27T03:41:26.084Z,15.90
2018-01-27T03:43:54.444Z,16.30
2018-01-27T03:46:22.030Z,16.40
2018-01-27T03:48:50.369Z,16.47
2018-01-27T03:51:17.996Z,17.10
2018-01-27T03:53:45.561Z,16.00
2018-01-27T03:56:13.146Z,16.37
2018-01-27T03:58:40.851Z,15.70
2018-01-27T04:01:08.500Z,14.57
2018-01-27T04:03:36.856Z,15.00
2018-01-27T04:06:04.571Z,16.60
2018-01-27T04:08:32.160Z,19.03
2018-01-27T04:10:59.743Z,17.57
2018-01-27T04:13:28.085Z,18.30
2018-01-27T04:15:55.680Z,17.83
2018-01-27T04:18:24.012Z,16.10
2018-01-27T04:20:51.594Z,17.27
2018-01-27T04:23:19.221Z,17.43
2018-01-27T04:25:46.799Z,19.17
2018-01-27T04:28:14.401Z,17.67
2018-01-27T04:30:42.743Z,18.07
2018-01-27T04:33:10.307Z,17.30
2018-01-27T04:35:37.913Z,18.60
2018-01-27T04:38:05.530Z,17.53
2018-01-27T04:40:33.213Z,17.33
2018-01-27T04:43:01.551Z,23.90
2018-01-27T04:45:29.111Z,18.03
2018-01-27T04:47:56.705Z,16.90
2018-01-27T04:50:25.054Z,17.77
2018-01-27T04:52:52.647Z,18.50
2018-01-27T04:55:20.979Z,18.70
2018-01-27T04:57:48.544Z,17.80
2018-01-27T05:00:16.121Z,16.53
2018-01-27T05:02:43.832Z,17.23
2018-01-27T05:05:11.421Z,16.47
2018-01-27T05:07:39.002Z,18.63
2018-01-27T05:10:07.362Z,18.20
2018-01-27T05:12:34.920Z,17.67
2018-01-27T05:15:02.709Z,17.70
2018-01-27T05:17:31.049Z,18.43
2018-01-27T05:19:58.625Z,18.57
2018-01-27T05:22:26.217Z,17.17
2018-01-27T05:24:54.560Z,18.27
2018-01-27T05:27:22.132Z,18.53
2018-01-27T05:29:50.496Z,18.33
2018-01-27T05:32:18.076Z,19.00
2018-01-27T05:34:46.433Z,17.20
2018-01-27T05:37:14.030Z,19.50
2018-01-27T05:39:41.598Z,20.50
2018-01-27T05:42:09.202Z,19.83
2018-01-27T05:44:36.778Z,18.70
2018-01-27T05:47:05.152Z,20.90
2018-01-27T05:49:33.509Z,30.60
2018-01-27T05:52:01.084Z,19.97
2018-01-27T05:54:29.455Z,17.10
2018-01-27T05:56:57.023Z,20.33
2018-01-27T05:59:25.356Z,20.30
2018-01-27T06:01:52.950Z,19.17
2018-01-27T06:04:20.526Z,18.73
2018-01-27T06:06:49.017Z,18.63
2018-01-27T06:09:16.569Z,20.60
2018-01-27T06:11:44.921Z,21.20
2018-01-27T06:14:12.643Z,20.00
2018-01-27T06:16:40.253Z,19.17
2018-01-27T06:19:08.596Z,19.30
2018-01-27T06:21:36.163Z,20.57
2018-01-27T06:24:03.753Z,18.30
2018-01-27T06:26:32.211Z,18.50
2018-01-27T06:28:59.766Z,21.07
2018-01-27T06:31:27.331Z,21.80
2018-01-27T06:33:54.911Z,21.10
2018-01-27T06:36:23.320Z,19.40
2018-01-27T06:38:50.914Z,17.27
2018-01-27T06:41:18.474Z,21.00
2018-01-27T06:43:46.057Z,20.10
2018-01-27T06:46:14.505Z,25.00
2018-01-27T06:48:42.072Z,35.20
2018-01-27T06:51:09.630Z,40.27
2018-01-27T06:53:37.207Z,40.50
2018-01-27T06:56:05.561Z,39.17
2018-01-27T06:58:33.129Z,37.97
2018-01-27T07:01:00.774Z,39.60
2018-01-27T07:03:28.449Z,42.73
2018-01-27T07:05:56.163Z,41.73
2018-01-27T07:08:23.746Z,40.60
2018-01-27T07:10:51.322Z,41.87
2018-01-27T07:13:18.906Z,39.10
2018-01-27T07:15:47.318Z,39.70
2018-01-27T07:18:14.877Z,45.87
2018-01-27T07:20:42.471Z,44.10
2018-01-27T07:23:10.074Z,49.57
2018-01-27T07:25:37.657Z,46.13
2018-01-27T07:28:05.267Z,49.03
2018-01-27T07:30:33.634Z,50.40
2018-01-27T07:33:01.201Z,44.57
2018-01-27T07:35:29.530Z,44.40
2018-01-27T07:37:57.093Z,50.53
2018-01-27T07:40:24.662Z,36.97
2018-01-27T07:42:52.252Z,36.03
2018-01-27T07:45:20.592Z,37.83
2018-01-27T07:47:48.266Z,41.80
2018-01-27T07:50:15.926Z,45.33
2018-01-27T07:52:43.500Z,41.73
2018-01-27T07:55:11.092Z,38.93
2018-01-27T07:57:38.706Z,44.20
2018-01-27T08:00:06.269Z,35.00
2018-01-27T08:02:33.922Z,34.43
2018-01-27T08:05:01.494Z,32.87
2018-01-27T08:07:29.209Z,36.20
2018-01-27T08:09:56.789Z,41.97
2018-01-27T08:12:24.487Z,44.50
2018-01-27T08:14:52.903Z,47.03
2018-01-27T08:17:20.475Z,47.07
2018-01-27T08:19:48.076Z,47.40
2018-01-27T08:22:17.274Z,48.90
2018-01-27T08:24:45.624Z,49.13
2018-01-27T08:27:13.251Z,57.90
2018-01-27T08:29:40.914Z,52.57
2018-01-27T08:32:08.515Z,56.63
2018-01-27T08:34:36.850Z,53.10
2018-01-27T08:37:04.569Z,59.53
2018-01-27T08:39:32.903Z,63.77
2018-01-27T08:42:00.548Z,59.30
2018-01-27T08:44:28.137Z,58.67
2018-01-27T08:46:55.714Z,61.63
2018-01-27T08:49:23.425Z,54.60
2018-01-27T08:51:51.016Z,64.20
2018-01-27T08:54:18.604Z,65.30
2018-01-27T08:56:46.950Z,58.07
2018-01-27T08:59:14.566Z,69.90
2018-01-27T09:01:42.183Z,64.00
2018-01-27T09:04:10.536Z,65.47
2018-01-27T09:06:38.145Z,68.53
2018-01-27T09:09:05.706Z,67.00
2018-01-27T09:11:33.337Z,65.13
2018-01-27T09:14:01.032Z,70.20
2018-01-27T09:16:28.622Z,66.37
2018-01-27T09:18:56.225Z,62.13
2018-01-27T09:21:24.597Z,67.60
2018-01-27T09:23:52.968Z,61.73
2018-01-27T09:26:20.550Z,58.87
2018-01-27T09:28:48.175Z,57.17
2018-01-27T09:31:15.859Z,55.90
2018-01-27T09:33:44.230Z,59.73
2018-01-27T09:36:11.866Z,66.10
2018-01-27T09:38:39.494Z,60.70
2018-01-27T09:41:07.087Z,60.33
2018-01-27T09:43:34.637Z,65.27
2018-01-27T09:46:02.231Z,61.27
2018-01-27T09:48:30.609Z,61.50
2018-01-27T09:50:58.940Z,66.47
2018-01-27T09:53:26.662Z,60.90
2018-01-27T09:55:54.346Z,66.07
2018-01-27T09:58:21.927Z,67.37
2018-01-27T10:00:49.486Z,69.27
2018-01-27T10:03:17.070Z,72.47
2018-01-27T10:05:45.408Z,74.80
2018-01-27T10:08:13.105Z,62.13
2018-01-27T10:10:40.850Z,69.53
2018-01-27T10:13:08.434Z,67.87
2018-01-27T10:15:36.087Z,69.70
2018-01-27T10:18:03.699Z,65.03
2018-01-27T10:20:31.264Z,67.27
2018-01-27T10:22:58.883Z,60.07
2018-01-27T10:25:27.216Z,68.67
2018-01-27T10:27:54.799Z,61.97
2018-01-27T10:30:22.377Z,61.17
2018-01-27T10:32:50.890Z,58.37
2018-01-27T10:35:18.481Z,59.80
2018-01-27T10:37:46.054Z,61.90
2018-01-27T10:40:13.768Z,62.50
2018-01-27T10:42:41.466Z,67.97
2018-01-27T10:45:09.113Z,68.50
2018-01-27T10:47:36.680Z,63.77
2018-01-27T10:50:04.259Z,65.77
2018-01-27T10:52:32.622Z,70.17
2018-01-27T10:55:00.204Z,62.07
2018-01-27T10:57:28.536Z,58.53
2018-01-27T10:59:56.198Z,70.50
2018-01-27T11:02:23.754Z,68.00
2018-01-27T11:04:51.328Z,63.13
2018-01-27T11:07:18.986Z,62.83
2018-01-27T11:09:46.557Z,69.93
2018-01-27T11:12:14.931Z,64.77
2018-01-27T11:14:42.609Z,63.87
2018-01-27T11:17:10.984Z,61.03
2018-01-27T11:19:39.394Z,63.70
2018-01-27T11:22:06.972Z,62.27
2018-01-27T11:24:34.557Z,69.23
2018-01-27T11:27:02.135Z,62.67
2018-01-27T11:29:30.510Z,57.93
2018-01-27T11:31:58.876Z,50.73
2018-01-27T11:34:26.442Z,44.83
2018-01-27T11:37:04.987Z,50.13
2018-01-27T11:39:32.611Z,46.50
2018-01-27T11:42:00.189Z,49.20
2018-01-27T11:44:28.536Z,49.53
2018-01-27T11:46:56.155Z,50.13
2018-01-27T11:49:23.777Z,45.47
2018-01-27T11:51:52.210Z,47.07
2018-01-27T11:54:20.061Z,49.20
2018-01-27T11:56:47.618Z,51.83
2018-01-27T11:59:15.187Z,50.20
2018-01-27T12:01:42.808Z,55.77
2018-01-27T12:04:11.167Z,51.07
2018-01-27T12:06:39.514Z,50.00
2018-01-27T12:09:07.082Z,47.37
2018-01-27T12:11:34.670Z,57.73
2018-01-27T12:14:03.034Z,49.10
2018-01-27T12:16:31.476Z,51.50
2018-01-27T12:18:59.041Z,46.90
2018-01-27T12:21:26.604Z,50.00
2018-01-27T12:23:54.373Z,52.63
2018-01-27T12:26:21.949Z,47.80
2018-01-27T12:28:50.332Z,48.83
2018-01-27T12:31:18.689Z,55.80
2018-01-27T12:33:47.130Z,47.70
2018-01-27T12:36:14.756Z,48.20
2018-01-27T12:38:43.083Z,52.57
2018-01-27T12:41:10.685Z,56.93
2018-01-27T12:43:39.039Z,53.03
2018-01-27T12:46:06.730Z,52.07
2018-01-27T12:48:34.381Z,51.23
2018-01-27T12:51:02.731Z,57.80
2018-01-27T12:53:30.329Z,54.07
2018-01-27T12:55:57.912Z,48.90
2018-01-27T12:58:25.513Z,43.47
2018-01-27T13:00:53.107Z,43.60
2018-01-27T13:03:20.696Z,44.50
2018-01-27T13:05:48.352Z,39.07
2018-01-27T13:08:15.932Z,44.17
2018-01-27T13:10:43.616Z,38.67
2018-01-27T13:13:11.231Z,44.60
2018-01-27T13:15:38.800Z,42.53
2018-01-27T13:18:06.494Z,34.00
2018-01-27T13:20:34.078Z,33.97
2018-01-27T13:23:01.698Z,31.10
2018-01-27T13:25:31.579Z,33.43
2018-01-27T13:27:59.219Z,33.10
2018-01-27T13:30:26.856Z,31.33
2018-01-27T13:32:55.492Z,32.53
2018-01-27T13:35:23.074Z,33.90
2018-01-27T13:37:50.627Z,32.87
2018-01-27T13:40:18.318Z,32.33
2018-01-27T13:42:45.968Z,29.40
2018-01-27T13:45:14.344Z,30.10
2018-01-27T13:47:41.916Z,27.17
2018-01-27T13:50:10.940Z,29.33
2018-01-27T13:52:38.530Z,26.47
2018-01-27T13:55:07.697Z,26.53
2018-01-27T13:57:35.264Z,28.77
2018-01-27T14:00:02.915Z,28.57
2018-01-27T14:02:30.484Z,27.13
2018-01-27T14:04:58.066Z,28.30
2018-01-27T14:07:25.754Z,28.70
2018-01-27T14:09:54.115Z,27.60
2018-01-27T14:12:22.551Z,31.33
2018-01-27T14:14:50.143Z,34.00
2018-01-27T14:17:17.714Z,34.80
2018-01-27T14:19:45.374Z,37.23
2018-01-27T14:22:13.026Z,38.33
2018-01-27T14:24:40.678Z,36.50
2018-01-27T14:27:08.286Z,35.70
2018-01-27T14:29:35.910Z,33.67
2018-01-27T14:32:04.253Z,37.97
2018-01-27T14:34:31.940Z,40.27
2018-01-27T14:36:59.608Z,35.80
2018-01-27T14:39:27.264Z,40.77
2018-01-27T14:41:54.851Z,34.37
2018-01-27T14:44:23.413Z,36.50
2018-01-27T14:46:51.752Z,32.93
2018-01-27T14:49:20.098Z,34.50
2018-01-27T14:51:47.672Z,33.73
2018-01-27T14:54:15.293Z,30.90
2018-01-27T14:56:43.842Z,32.97
2018-01-27T14:59:11.419Z,34.63
2018-01-27T15:01:39.096Z,29.97
2018-01-27T15:04:06.679Z,34.60
2018-01-27T15:06:34.807Z,29.03
2018-01-27T15:09:02.383Z,30.70
2018-01-27T15:11:30.807Z,28.10
2018-01-27T15:13:58.425Z,30.77
2018-01-27T15:16:25.965Z,31.07
2018-01-27T15:18:53.655Z,32.13
2018-01-27T15:21:21.238Z,33.63
2018-01-27T15:23:48.826Z,30.97
2018-01-27T15:26:16.448Z,30.97
2018-01-27T15:28:44.162Z,31.57
2018-01-27T15:31:12.606Z,30.87
2018-01-27T15:33:40.183Z,28.83
2018-01-27T15:36:07.773Z,30.40
2018-01-27T15:38:36.119Z,30.33
2018-01-27T15:41:03.789Z,30.50
2018-01-27T15:43:31.362Z,31.57
2018-01-27T15:45:59.723Z,29.50
2018-01-27T15:48:27.389Z,30.80
2018-01-27T15:50:54.968Z,30.53
2018-01-27T15:53:22.812Z,27.30
2018-01-27T15:55:51.169Z,30.57
2018-01-27T15:58:18.737Z,30.43
2018-01-27T16:00:46.562Z,29.53
2018-01-27T16:03:14.141Z,33.73
2018-01-27T16:05:41.779Z,37.17
2018-01-27T16:08:09.581Z,26.50
2018-01-27T16:10:37.196Z,29.67
2018-01-27T16:13:04.758Z,33.30
2018-01-27T16:15:32.352Z,31.37
2018-01-27T16:17:59.928Z,48.60
2018-01-27T16:20:28.301Z,39.67
2018-01-27T16:22:55.902Z,35.07
2018-01-27T16:25:23.464Z,30.50
2018-01-27T16:27:51.222Z,30.80
2018-01-27T16:30:18.802Z,33.20
2018-01-27T16:32:46.503Z,32.70
2018-01-27T16:35:14.877Z,33.70
2018-01-27T16:37:42.467Z,36.60
2018-01-27T16:40:10.049Z,38.30
2018-01-27T16:42:37.708Z,35.33
2018-01-27T16:45:05.308Z,35.97
2018-01-27T16:47:32.896Z,37.77
2018-01-27T16:50:01.240Z,36.00
2018-01-27T16:52:29.616Z,39.83
2018-01-27T16:54:57.206Z,41.70
2018-01-27T16:57:25.556Z,42.87
2018-01-27T16:59:53.114Z,43.23
2018-01-27T17:02:20.715Z,40.27
2018-01-27T17:04:48.337Z,39.23
2018-01-27T17:07:16.672Z,41.70
2018-01-27T17:09:44.258Z,40.70
2018-01-27T17:12:11.845Z,40.20
2018-01-27T17:14:40.188Z,40.97
2018-01-27T17:17:07.818Z,38.17
2018-01-27T17:19:35.412Z,41.03
2018-01-27T17:22:03.030Z,44.83
2018-01-27T17:24:30.585Z,47.23
2018-01-27T17:26:58.181Z,38.33
2018-01-27T17:29:25.761Z,43.90
2018-01-27T17:31:54.126Z,45.50
2018-01-27T17:34:21.843Z,43.70
2018-01-27T17:36:49.459Z,44.63
2018-01-27T17:39:17.852Z,41.50
2018-01-27T17:41:46.252Z,45.97
2018-01-27T17:44:13.952Z,46.33
2018-01-27T17:46:41.555Z,45.17
2018-01-27T17:49:09.136Z,42.93
2018-01-27T17:51:36.738Z,46.83
2018-01-27T17:54:04.326Z,48.37
2018-01-27T17:56:31.946Z,47.60
2018-01-27T17:58:59.528Z,40.93
2018-01-27T18:01:27.872Z,43.97
2018-01-27T18:03:55.453Z,46.60
2018-01-27T18:06:23.019Z,43.47
2018-01-27T18:08:51.363Z,43.77
2018-01-27T18:11:18.939Z,44.67
2018-01-27T18:13:46.628Z,50.00
2018-01-27T18:16:15.159Z,46.27
2018-01-27T18:18:42.742Z,43.50
2018-01-27T18:21:10.333Z,52.07
2018-01-27T18:23:37.913Z,49.70
2018-01-27T18:26:05.502Z,49.80
2018-01-27T18:28:33.171Z,48.03
2018-01-27T18:31:00.780Z,49.97
2018-01-27T18:33:28.349Z,50.80
2018-01-27T18:35:56.708Z,44.10
2018-01-27T18:38:24.323Z,45.60
2018-01-27T18:40:51.890Z,43.67
2018-01-27T18:43:19.551Z,50.67
2018-01-27T18:45:47.158Z,49.50
2018-01-27T18:48:14.822Z,48.10
2018-01-27T18:50:42.401Z,46.37
2018-01-27T18:53:09.979Z,45.50
2018-01-27T18:55:37.659Z,52.57
2018-01-27T18:58:06.145Z,44.50
2018-01-27T19:00:33.716Z,51.30
2018-01-27T19:03:01.284Z,53.73
2018-01-27T19:05:28.957Z,44.90
2018-01-27T19:07:56.573Z,47.07
2018-01-27T19:10:24.894Z,48.47
2018-01-27T19:12:52.551Z,50.80
2018-01-27T19:15:20.149Z,47.90
2018-01-27T19:17:47.768Z,41.83
2018-01-27T19:20:15.346Z,45.17
2018-01-27T19:22:42.908Z,44.97
2018-01-27T19:25:10.489Z,43.03
2018-01-27T19:27:38.149Z,42.97
2018-01-27T19:30:05.749Z,46.23
2018-01-27T19:32:33.359Z,42.67
2018-01-27T19:35:01.040Z,51.67
2018-01-27T19:37:29.426Z,39.77
2018-01-27T19:39:57.757Z,50.97
2018-01-27T19:42:25.341Z,43.40
2018-01-27T19:44:52.955Z,42.50
2018-01-27T19:47:20.545Z,46.80
2018-01-27T19:49:48.206Z,44.33
2018-01-27T19:52:15.779Z,41.03
2018-01-27T19:54:44.153Z,45.00
2018-01-27T19:57:11.812Z,39.80
2018-01-27T19:59:39.399Z,40.60
2018-01-27T20:02:06.963Z,40.60
2018-01-27T20:04:34.544Z,44.77
2018-01-27T20:07:02.121Z,44.50
2018-01-27T20:09:29.811Z,46.93
2018-01-27T20:11:58.233Z,45.30
2018-01-27T20:14:25.862Z,47.73
2018-01-27T20:16:54.242Z,42.33
2018-01-27T20:19:22.576Z,44.57
2018-01-27T20:21:50.155Z,43.40
2018-01-27T20:24:17.767Z,39.43
2018-01-27T20:26:45.332Z,41.80
2018-01-27T20:29:12.909Z,40.80
2018-01-27T20:31:40.600Z,43.43
2018-01-27T20:34:08.988Z,38.50
2018-01-27T20:36:37.366Z,43.13
2018-01-27T20:39:05.721Z,41.20
2018-01-27T20:41:33.317Z,34.73
2018-01-27T20:44:00.943Z,39.87
2018-01-27T20:46:28.525Z,45.27
2018-01-27T20:48:56.877Z,39.13
2018-01-27T20:51:24.448Z,43.67
2018-01-27T20:53:52.816Z,38.40
2018-01-27T20:56:21.190Z,38.17
2018-01-27T20:58:48.752Z,38.07
2018-01-27T21:01:17.137Z,36.60
2018-01-27T21:03:45.558Z,36.90
2018-01-27T21:06:13.137Z,37.87
2018-01-27T21:08:40.848Z,34.20
2018-01-27T21:11:08.464Z,37.60
2018-01-27T21:13:36.135Z,37.57
2018-01-27T21:16:03.708Z,33.10
2018-01-27T21:18:32.081Z,33.67
2018-01-27T21:21:00.485Z,37.47
2018-01-27T21:23:28.170Z,37.53
2018-01-27T21:25:55.752Z,38.90
2018-01-27T21:28:23.317Z,34.03
2018-01-27T21:30:50.992Z,34.50
2018-01-27T21:33:18.657Z,36.67
2018-01-27T21:35:46.246Z,34.00
2018-01-27T21:38:13.836Z,33.73
2018-01-27T21:40:41.549Z,35.80
2018-01-27T21:43:09.884Z,39.20
2018-01-27T21:45:37.477Z,35.03
2018-01-27T21:48:05.846Z,36.70
2018-01-27T21:50:34.376Z,35.20
2018-01-27T21:53:02.188Z,37.30
2018-01-27T21:55:29.802Z,36.63
2018-01-27T21:57:57.380Z,33.27
2018-01-27T22:00:24.968Z,37.13
2018-01-27T22:02:53.134Z,39.13
2018-01-27T22:05:21.496Z,37.30
2018-01-27T22:07:49.059Z,37.17
2018-01-27T22:10:16.638Z,38.60
2018-01-27T22:12:45.007Z,41.23
2018-01-27T22:15:12.591Z,40.23
2018-01-27T22:17:40.233Z,40.07
2018-01-27T22:20:07.884Z,42.00
2018-01-27T22:22:35.462Z,42.60
2018-01-27T22:25:03.838Z,42.83
2018-01-27T22:27:32.192Z,39.60
2018-01-27T22:29:59.804Z,42.10
2018-01-27T22:32:27.368Z,36.80
2018-01-27T22:34:54.981Z,42.90
2018-01-27T22:37:23.336Z,37.63
2018-01-27T22:39:50.921Z,38.30
2018-01-27T22:42:19.259Z,37.80
2018-01-27T22:44:47.300Z,35.20
2018-01-27T22:47:14.896Z,38.87
2018-01-27T22:49:42.562Z,40.97
2018-01-27T22:52:10.248Z,40.90
2018-01-27T22:54:38.585Z,39.33
2018-01-27T22:57:06.166Z,37.33
2018-01-27T22:59:33.828Z,38.70
2018-01-27T23:02:01.518Z,36.87
2018-01-27T23:04:29.158Z,37.50
2018-01-27T23:06:57.495Z,41.63
2018-01-27T23:09:25.301Z,43.00
2018-01-27T23:11:53.653Z,36.77
2018-01-27T23:14:21.228Z,41.23
2018-01-27T23:16:49.699Z,36.70
2018-01-27T23:19:17.271Z,37.07
2018-01-27T23:21:45.605Z,38.57
2018-01-27T23:24:13.250Z,39.80
2018-01-27T23:26:40.850Z,42.43
2018-01-27T23:29:08.500Z,40.10
2018-01-27T23:31:36.194Z,38.57
2018-01-27T23:34:04.553Z,38.07
2018-01-27T23:36:32.160Z,41.63
2018-01-27T23:38:59.772Z,40.63
2018-01-27T23:41:27.344Z,38.90
2018-01-27T23:43:55.698Z,38.60
2018-01-27T23:46:23.299Z,44.53
2018-01-27T23:48:50.861Z,37.73
2018-01-27T23:51:18.458Z,38.50
2018-01-27T23:53:46.041Z,37.67
2018-01-27T23:56:13.724Z,40.37
2018-01-27T23:58:42.192Z,35.30
